Time;durP1;ratioP1;P1;durP2;ratioP2;P2;SDS_P1;SDS_P2;PMS_P1;PMS_P2;Temp;Humidity;BMP_temperature;BMP_pressure;BME280_temperature;BME280_humidity;BME280_pressure;Samples;Min_cycle;Max_cycle;Signal;HPM_P1;HPM_P2
2022/12/21 00:02:03;;;;;;;117.55;40.95;;;;;;;;;;4987524;28;20057;-83
2022/12/21 00:04:29;;;;;;;118.55;40.95;;;;;;;;;;4987430;28;20133;-83
2022/12/21 00:06:56;;;;;;;117.68;41.42;;;;;;;;;;4985274;28;20491;-82
2022/12/21 00:09:22;;;;;;;113.85;41.45;;;;;;;;;;4989107;28;20384;-83
2022/12/21 00:11:49;;;;;;;119.85;43.63;;;;;;;;;;4978753;28;20042;-82
2022/12/21 00:14:15;;;;;;;119.00;41.97;;;;;;;;;;5004982;28;20030;-83
2022/12/21 00:16:42;;;;;;;117.15;40.40;;;;;;;;;;4988728;28;20484;-82
2022/12/21 00:19:11;;;;;;;113.18;41.50;;;;;;;;;;4986419;28;20380;-82
2022/12/21 00:21:37;;;;;;;105.90;39.28;;;;;;;;;;4989479;28;20057;-81
2022/12/21 00:24:04;;;;;;;120.72;40.53;;;;;;;;;;4989492;28;20054;-81
2022/12/21 00:26:31;;;;;;;106.28;39.47;;;;;;;;;;4971409;28;20121;-81
2022/12/21 00:28:58;;;;;;;105.75;38.15;;;;;;;;;;4985891;28;20611;-81
2022/12/21 00:31:26;;;;;;;109.43;36.85;;;;;;;;;;4987342;28;20066;-83
2022/12/21 00:33:52;;;;;;;107.90;36.65;;;;;;;;;;4996760;28;20022;-81
2022/12/21 00:36:19;;;;;;;103.88;38.78;;;;;;;;;;4983573;28;20046;-82
2022/12/21 00:38:49;;;;;;;123.70;40.70;;;;;;;;;;4996377;28;20874;-82
2022/12/21 00:41:20;;;;;;;108.07;40.38;;;;;;;;;;4985164;28;20033;-82
2022/12/21 00:43:46;;;;;;;;;;;;;;;;;;5000241;28;20041;-81
2022/12/21 00:46:20;;;;;;;102.78;37.08;;;;;;;;;;4981715;28;20011;-81
2022/12/21 00:48:46;;;;;;;105.05;37.13;;;;;;;;;;4979799;28;20072;-81
2022/12/21 00:51:13;;;;;;;115.10;37.63;;;;;;;;;;4987474;28;20439;-81
2022/12/21 00:53:39;;;;;;;106.82;38.38;;;;;;;;;;4982881;28;20351;-82
2022/12/21 00:56:06;;;;;;;117.40;37.50;;;;;;;;;;4995161;28;20027;-83
2022/12/21 00:58:33;;;;;;;107.65;36.75;;;;;;;;;;4978105;28;20409;-83
2022/12/21 01:01:00;;;;;;;120.50;38.95;;;;;;;;;;4989014;28;20116;-82
2022/12/21 01:03:27;;;;;;;105.50;36.28;;;;;;;;;;4988306;28;20415;-83
2022/12/21 01:05:54;;;;;;;105.93;35.90;;;;;;;;;;4986471;28;20046;-82
2022/12/21 01:08:21;;;;;;;107.97;34.80;;;;;;;;;;4987274;28;20404;-82
2022/12/21 01:10:47;;;;;;;106.72;34.90;;;;;;;;;;4971521;28;20046;-81
2022/12/21 01:13:14;;;;;;;100.13;35.83;;;;;;;;;;5001988;28;20031;-83
2022/12/21 01:15:41;;;;;;;113.05;36.92;;;;;;;;;;5000360;28;20027;-82
2022/12/21 01:18:07;;;;;;;97.47;34.35;;;;;;;;;;4989444;28;20030;-82
2022/12/21 01:20:33;;;;;;;98.53;35.35;;;;;;;;;;4987642;28;20126;-82
2022/12/21 01:22:59;;;;;;;100.82;34.47;;;;;;;;;;4987427;28;20159;-82
2022/12/21 01:25:25;;;;;;;112.05;36.28;;;;;;;;;;4990048;28;20025;-83
2022/12/21 01:27:53;;;;;;;96.05;33.33;;;;;;;;;;4994553;28;20035;-82
2022/12/21 01:30:21;;;;;;;107.25;35.55;;;;;;;;;;4987601;28;20097;-83
2022/12/21 01:32:47;;;;;;;107.60;33.85;;;;;;;;;;4976704;28;20030;-83
2022/12/21 01:35:13;;;;;;;91.30;32.20;;;;;;;;;;4987990;28;20034;-82
2022/12/21 01:37:39;;;;;;;100.20;33.97;;;;;;;;;;4982256;28;20030;-82
2022/12/21 01:40:05;;;;;;;102.40;33.80;;;;;;;;;;4987330;28;20374;-82
2022/12/21 01:42:31;;;;;;;93.95;33.72;;;;;;;;;;4986899;28;20038;-82
2022/12/21 01:45:03;;;;;;;96.05;32.05;;;;;;;;;;4990035;28;20432;-82
2022/12/21 01:47:33;;;;;;;109.65;33.55;;;;;;;;;;4986378;28;20052;-83
2022/12/21 01:50:01;;;;;;;100.60;32.63;;;;;;;;;;4989804;28;20022;-82
2022/12/21 01:52:28;;;;;;;106.95;32.63;;;;;;;;;;4982419;28;20030;-82
2022/12/21 01:54:57;;;;;;;108.32;34.17;;;;;;;;;;4988789;28;20030;-82
2022/12/21 01:57:24;;;;;;;93.93;32.85;;;;;;;;;;4986308;28;20463;-82
2022/12/21 01:59:53;;;;;;;92.38;31.30;;;;;;;;;;5001637;28;20038;-82
2022/12/21 02:02:26;;;;;;;103.03;32.90;;;;;;;;;;4987850;28;20043;-82
2022/12/21 02:04:53;;;;;;;97.90;33.20;;;;;;;;;;4996885;28;20334;-81
2022/12/21 02:07:20;;;;;;;104.00;34.10;;;;;;;;;;4999733;28;20090;-81
2022/12/21 02:09:46;;;;;;;99.80;32.55;;;;;;;;;;4989805;28;20546;-81
2022/12/21 02:12:15;;;;;;;102.10;32.92;;;;;;;;;;4987300;28;20439;-83
2022/12/21 02:14:43;;;;;;;103.45;32.30;;;;;;;;;;4987002;28;20058;-82
2022/12/21 02:17:21;;;;;;;99.03;33.13;;;;;;;;;;4986511;28;20027;-83
2022/12/21 02:19:58;;;;;;;105.17;33.27;;;;;;;;;;4982262;28;20025;-82
2022/12/21 02:22:24;;;;;;;102.20;33.45;;;;;;;;;;4987347;28;20498;-84
2022/12/21 02:24:50;;;;;;;107.57;34.35;;;;;;;;;;4981679;28;20031;-82
2022/12/21 02:27:22;;;;;;;109.22;34.17;;;;;;;;;;5002943;28;20100;-82
2022/12/21 02:29:57;;;;;;;106.10;34.10;;;;;;;;;;4984202;28;20026;-82
2022/12/21 02:32:24;;;;;;;115.65;37.25;;;;;;;;;;4983687;28;20394;-82
2022/12/21 02:34:53;;;;;;;108.32;36.33;;;;;;;;;;4976536;28;20051;-82
2022/12/21 02:37:22;;;;;;;115.47;36.25;;;;;;;;;;4981143;28;20027;-82
2022/12/21 02:39:55;;;;;;;119.38;36.28;;;;;;;;;;4986872;28;20026;-82
2022/12/21 02:45:40;;;;;;;116.07;35.87;;;;;;;;;;4993591;28;20042;-88
2022/12/21 02:48:14;;;;;;;110.65;34.95;;;;;;;;;;4964737;28;20373;-82
2022/12/21 02:50:42;;;;;;;101.22;34.88;;;;;;;;;;4979979;28;20054;-82
2022/12/21 02:53:12;;;;;;;109.72;34.10;;;;;;;;;;5001626;28;20026;-82
2022/12/21 02:55:38;;;;;;;109.43;35.55;;;;;;;;;;4988398;28;20031;-81
2022/12/21 02:58:12;;;;;;;107.30;34.85;;;;;;;;;;4982614;28;20034;-82
2022/12/21 03:00:43;;;;;;;107.30;35.33;;;;;;;;;;4985076;28;20056;-82
2022/12/21 03:06:13;;;;;;;119.70;36.33;;;;;;;;;;4985005;28;20098;-82
2022/12/21 03:08:42;;;;;;;117.00;34.65;;;;;;;;;;4984034;28;20080;-81
2022/12/21 03:11:09;;;;;;;114.70;36.67;;;;;;;;;;4985262;28;20022;-82
2022/12/21 03:13:49;;;;;;;131.00;37.58;;;;;;;;;;4971163;28;20042;-82
2022/12/21 03:16:30;;;;;;;109.78;35.50;;;;;;;;;;4999733;28;20026;-81
2022/12/21 03:19:03;;;;;;;123.10;37.63;;;;;;;;;;4985099;28;20023;-82
2022/12/21 03:21:52;;;;;;;128.50;39.47;;;;;;;;;;4959772;28;20019;-82
2022/12/21 03:24:26;;;;;;;119.40;37.08;;;;;;;;;;4981210;28;20113;-82
2022/12/21 03:26:58;;;;;;;112.63;37.50;;;;;;;;;;4988109;28;20034;-83
2022/12/21 03:29:30;;;;;;;119.85;40.35;;;;;;;;;;4984366;28;20208;-82
2022/12/21 03:32:00;;;;;;;123.90;37.67;;;;;;;;;;4982709;28;20026;-82
2022/12/21 03:34:27;;;;;;;121.72;38.60;;;;;;;;;;4983062;28;20122;-86
2022/12/21 03:36:57;;;;;;;135.32;39.78;;;;;;;;;;4987213;28;20447;-81
2022/12/21 03:39:24;;;;;;;124.85;38.67;;;;;;;;;;4982250;28;20456;-85
2022/12/21 03:41:52;;;;;;;143.13;42.22;;;;;;;;;;4987704;28;20022;-82
2022/12/21 03:44:23;;;;;;;145.98;41.25;;;;;;;;;;4986167;28;20030;-81
2022/12/21 03:46:51;;;;;;;131.25;41.95;;;;;;;;;;4986904;28;20395;-81
2022/12/21 03:49:22;;;;;;;140.93;42.05;;;;;;;;;;4981636;28;20037;-81
2022/12/21 03:51:48;;;;;;;145.07;42.60;;;;;;;;;;4979365;28;20163;-82
2022/12/21 03:54:47;;;;;;;121.30;40.42;;;;;;;;;;4984944;28;20126;-82
2022/12/21 03:57:14;;;;;;;139.10;42.42;;;;;;;;;;4975331;28;20114;-81
2022/12/21 03:59:41;;;;;;;142.65;41.17;;;;;;;;;;4985504;28;20037;-82
2022/12/21 04:02:23;;;;;;;134.43;41.05;;;;;;;;;;4941460;28;1226660;-82
2022/12/21 04:04:53;;;;;;;151.27;45.63;;;;;;;;;;4982758;28;20030;-82
2022/12/21 04:07:23;;;;;;;151.30;44.15;;;;;;;;;;4976633;28;20118;-82
2022/12/21 04:09:55;;;;;;;158.52;45.13;;;;;;;;;;4986570;28;20030;-82
2022/12/21 04:12:36;;;;;;;147.60;44.97;;;;;;;;;;5001904;28;20041;-82
2022/12/21 04:15:06;;;;;;;144.50;44.38;;;;;;;;;;4980307;28;20031;-81
2022/12/21 04:17:32;;;;;;;109.17;33.80;;;;;;;;;;4985101;28;20030;-81
2022/12/21 04:19:58;;;;;;;163.70;46.83;;;;;;;;;;5002632;28;20487;-82
2022/12/21 04:28:08;;;;;;;180.85;45.38;;;;;;;;;;4981477;28;20026;-81
2022/12/21 04:30:36;;;;;;;200.35;48.65;;;;;;;;;;4988515;28;20030;-81
2022/12/21 04:33:02;;;;;;;217.35;49.30;;;;;;;;;;4982016;28;20388;-81
2022/12/21 04:35:28;;;;;;;219.10;48.85;;;;;;;;;;4981216;28;20018;-82
2022/12/21 04:37:54;;;;;;;246.68;48.65;;;;;;;;;;4985819;28;20031;-83
2022/12/21 04:40:21;;;;;;;360.08;49.28;;;;;;;;;;4984541;28;20084;-83
2022/12/21 04:42:47;;;;;;;394.67;52.95;;;;;;;;;;4971507;28;20391;-82
2022/12/21 04:45:13;;;;;;;376.88;51.85;;;;;;;;;;4997781;28;20105;-82
2022/12/21 04:47:39;;;;;;;388.92;52.15;;;;;;;;;;4982849;28;20461;-82
2022/12/21 04:50:05;;;;;;;346.30;48.55;;;;;;;;;;5000148;28;20056;-82
2022/12/21 04:52:32;;;;;;;396.52;51.63;;;;;;;;;;4967720;28;20125;-82
2022/12/21 04:54:58;;;;;;;411.80;49.75;;;;;;;;;;4983805;28;20031;-82
2022/12/21 04:57:24;;;;;;;376.40;51.60;;;;;;;;;;4983253;28;20439;-81
2022/12/21 04:59:51;;;;;;;483.45;51.63;;;;;;;;;;4980977;28;20019;-82
2022/12/21 05:02:17;;;;;;;368.63;51.30;;;;;;;;;;4987401;28;20051;-83
2022/12/21 05:04:43;;;;;;;425.25;48.28;;;;;;;;;;4987753;28;20520;-81
2022/12/21 05:07:09;;;;;;;417.08;51.60;;;;;;;;;;4987054;28;20058;-82
2022/12/21 05:09:35;;;;;;;332.85;49.08;;;;;;;;;;4986115;28;20034;-81
2022/12/21 05:12:01;;;;;;;291.77;43.60;;;;;;;;;;4978712;28;20058;-81
2022/12/21 05:14:27;;;;;;;349.42;47.83;;;;;;;;;;4975678;28;20026;-82
2022/12/21 05:16:54;;;;;;;323.35;46.20;;;;;;;;;;4982568;28;20027;-82
2022/12/21 05:19:20;;;;;;;329.77;46.08;;;;;;;;;;4985581;28;20377;-81
2022/12/21 05:21:46;;;;;;;342.75;44.72;;;;;;;;;;4986131;28;20133;-81
2022/12/21 05:24:12;;;;;;;352.45;47.78;;;;;;;;;;4985988;28;20035;-81
2022/12/21 05:26:38;;;;;;;442.77;49.35;;;;;;;;;;4997039;28;20041;-81
2022/12/21 05:29:05;;;;;;;303.63;45.03;;;;;;;;;;4980911;28;20035;-81
2022/12/21 05:31:31;;;;;;;427.70;49.42;;;;;;;;;;4985154;28;20080;-81
2022/12/21 05:33:57;;;;;;;328.02;45.97;;;;;;;;;;4998706;28;20037;-80
2022/12/21 05:36:24;;;;;;;368.33;47.63;;;;;;;;;;4987301;28;20169;-84
2022/12/21 05:38:50;;;;;;;359.48;48.15;;;;;;;;;;4975921;28;20031;-81
2022/12/21 05:41:17;;;;;;;279.33;45.92;;;;;;;;;;4987118;28;20124;-81
2022/12/21 05:43:44;;;;;;;328.30;49.08;;;;;;;;;;4986345;28;20037;-80
2022/12/21 05:46:11;;;;;;;278.17;47.58;;;;;;;;;;4965794;28;20046;-82
2022/12/21 05:48:37;;;;;;;363.63;49.90;;;;;;;;;;4991320;28;20034;-81
2022/12/21 05:51:07;;;;;;;366.65;52.83;;;;;;;;;;4994513;28;20530;-83
2022/12/21 05:53:33;;;;;;;509.77;59.23;;;;;;;;;;4993711;28;20562;-81
2022/12/21 05:56:00;;;;;;;470.88;58.92;;;;;;;;;;4999749;28;20287;-82
2022/12/21 05:58:26;;;;;;;366.50;57.97;;;;;;;;;;4986408;28;20115;-84
2022/12/21 06:00:52;;;;;;;320.73;55.33;;;;;;;;;;5022822;28;20038;-82
2022/12/21 06:03:18;;;;;;;414.17;58.13;;;;;;;;;;4993016;28;20414;-82
2022/12/21 06:05:44;;;;;;;444.75;60.10;;;;;;;;;;4990982;28;20611;-81
2022/12/21 06:08:11;;;;;;;485.60;64.97;;;;;;;;;;5011524;28;20112;-82
2022/12/21 06:10:37;;;;;;;465.02;65.25;;;;;;;;;;4992231;28;20015;-81
2022/12/21 06:13:04;;;;;;;446.50;67.25;;;;;;;;;;4991557;28;20508;-81
2022/12/21 06:15:30;;;;;;;563.30;72.65;;;;;;;;;;4988297;28;20325;-81
2022/12/21 06:17:56;;;;;;;579.35;77.35;;;;;;;;;;4978108;28;20042;-82
2022/12/21 06:20:23;;;;;;;566.20;77.28;;;;;;;;;;4988201;28;20044;-81
2022/12/21 06:22:49;;;;;;;591.03;77.82;;;;;;;;;;4987268;28;20384;-82
2022/12/21 06:25:15;;;;;;;636.80;80.90;;;;;;;;;;4987255;28;20060;-82
2022/12/21 06:27:41;;;;;;;562.15;77.78;;;;;;;;;;4984158;28;20035;-82
2022/12/21 06:30:09;;;;;;;587.10;83.78;;;;;;;;;;5001408;28;20403;-81
2022/12/21 06:32:35;;;;;;;530.67;79.13;;;;;;;;;;4985824;28;20038;-81
2022/12/21 06:35:01;;;;;;;532.63;82.18;;;;;;;;;;4968627;28;20038;-82
2022/12/21 06:37:27;;;;;;;485.13;79.70;;;;;;;;;;4977238;28;20407;-82
2022/12/21 06:39:53;;;;;;;515.28;84.47;;;;;;;;;;5001401;28;20065;-82
2022/12/21 06:42:20;;;;;;;431.17;80.82;;;;;;;;;;5002784;28;20757;-82
2022/12/21 06:44:46;;;;;;;436.65;80.25;;;;;;;;;;4983718;28;20315;-81
2022/12/21 06:47:12;;;;;;;401.50;77.63;;;;;;;;;;4984638;28;20439;-82
2022/12/21 06:49:38;;;;;;;309.70;71.95;;;;;;;;;;4969060;28;20041;-81
2022/12/21 06:52:04;;;;;;;384.50;77.13;;;;;;;;;;4987097;28;20143;-81
2022/12/21 06:54:31;;;;;;;379.15;81.18;;;;;;;;;;4992764;28;20034;-81
2022/12/21 06:56:57;;;;;;;328.88;76.85;;;;;;;;;;4985826;28;20065;-80
2022/12/21 06:59:23;;;;;;;359.77;80.78;;;;;;;;;;4983669;28;20403;-82
2022/12/21 07:01:49;;;;;;;367.98;77.47;;;;;;;;;;5004089;28;20058;-81
2022/12/21 07:04:16;;;;;;;377.70;80.20;;;;;;;;;;4984732;28;20042;-81
2022/12/21 07:06:42;;;;;;;371.42;79.53;;;;;;;;;;4969420;28;20050;-82
2022/12/21 07:09:08;;;;;;;388.50;82.45;;;;;;;;;;4985814;28;20038;-82
2022/12/21 07:11:34;;;;;;;339.27;79.32;;;;;;;;;;4980732;28;20405;-81
2022/12/21 07:14:01;;;;;;;328.15;81.32;;;;;;;;;;5000214;28;20022;-82
2022/12/21 07:16:27;;;;;;;434.80;88.22;;;;;;;;;;4962999;28;20161;-82
2022/12/21 07:18:53;;;;;;;359.42;85.68;;;;;;;;;;4988407;28;20030;-82
2022/12/21 07:21:20;;;;;;;349.38;85.90;;;;;;;;;;4988312;28;20042;-83
2022/12/21 07:23:47;;;;;;;301.00;84.13;;;;;;;;;;4987682;28;20062;-81
2022/12/21 07:26:14;;;;;;;284.77;83.47;;;;;;;;;;4978510;28;20622;-81
2022/12/21 07:28:43;;;;;;;314.17;85.85;;;;;;;;;;4971397;28;20368;-82
2022/12/21 07:31:10;;;;;;;294.48;82.07;;;;;;;;;;4989874;28;20101;-82
2022/12/21 07:33:37;;;;;;;285.95;82.68;;;;;;;;;;4957340;28;20520;-82
2022/12/21 07:36:04;;;;;;;275.25;84.07;;;;;;;;;;4989889;28;20364;-82
2022/12/21 07:38:31;;;;;;;284.80;84.18;;;;;;;;;;4985147;28;20456;-83
2022/12/21 07:41:01;;;;;;;264.58;82.97;;;;;;;;;;5000716;28;20340;-82
2022/12/21 07:43:28;;;;;;;270.75;82.55;;;;;;;;;;4984882;28;20090;-83
2022/12/21 07:46:23;;;;;;;260.10;82.47;;;;;;;;;;4926077;28;20040;-83
2022/12/21 07:48:50;;;;;;;264.55;82.72;;;;;;;;;;4989082;28;20720;-82
2022/12/21 07:51:17;;;;;;;255.43;83.13;;;;;;;;;;4988619;28;20222;-82
2022/12/21 07:53:43;;;;;;;245.23;81.35;;;;;;;;;;4988484;28;20042;-82
2022/12/21 07:56:16;;;;;;;221.55;84.28;;;;;;;;;;4989044;28;20030;-82
2022/12/21 07:58:43;;;;;;;239.07;81.72;;;;;;;;;;4989075;28;20030;-82
2022/12/21 08:01:10;;;;;;;233.05;81.30;;;;;;;;;;4989270;28;20035;-82
2022/12/21 08:03:37;;;;;;;233.48;79.97;;;;;;;;;;4989626;28;20050;-83
2022/12/21 08:06:04;;;;;;;246.02;83.65;;;;;;;;;;4989651;28;20443;-82
2022/12/21 08:08:31;;;;;;;225.38;78.68;;;;;;;;;;4990435;28;20105;-83
2022/12/21 08:10:57;;;;;;;238.07;79.70;;;;;;;;;;4983852;28;20082;-82
2022/12/21 08:13:42;;;;;;;218.60;81.60;;;;;;;;;;4979149;28;20085;-83
2022/12/21 08:16:09;;;;;;;227.68;81.68;;;;;;;;;;4987726;28;20026;-81
2022/12/21 08:18:37;;;;;;;266.67;84.78;;;;;;;;;;4989104;28;20036;-81
2022/12/21 08:21:04;;;;;;;210.63;83.85;;;;;;;;;;4974157;28;20042;-81
2022/12/21 08:23:30;;;;;;;225.88;83.38;;;;;;;;;;4990300;28;20038;-81
2022/12/21 08:26:06;;;;;;;207.73;82.75;;;;;;;;;;4989162;28;20410;-81
2022/12/21 08:28:33;;;;;;;206.02;82.68;;;;;;;;;;4988571;28;20088;-81
2022/12/21 08:31:06;;;;;;;207.75;80.82;;;;;;;;;;4989200;28;20030;-81
2022/12/21 08:33:32;;;;;;;203.30;82.57;;;;;;;;;;4990098;28;20058;-82
2022/12/21 08:35:58;;;;;;;210.95;81.07;;;;;;;;;;4988440;28;20022;-81
2022/12/21 08:38:24;;;;;;;234.70;84.97;;;;;;;;;;4985314;28;20392;-82
2022/12/21 08:40:51;;;;;;;202.68;82.95;;;;;;;;;;4971318;28;20662;-82
2022/12/21 08:43:17;;;;;;;210.60;83.88;;;;;;;;;;4989076;28;20403;-82
2022/12/21 08:45:44;;;;;;;214.45;83.40;;;;;;;;;;4987135;28;20030;-82
2022/12/21 08:48:10;;;;;;;229.82;86.05;;;;;;;;;;4989022;28;20084;-82
2022/12/21 08:50:37;;;;;;;219.63;84.82;;;;;;;;;;4987007;28;20041;-81
2022/12/21 08:53:03;;;;;;;223.60;83.05;;;;;;;;;;4986200;28;20035;-81
2022/12/21 08:55:30;;;;;;;200.95;80.30;;;;;;;;;;4970853;28;20445;-81
2022/12/21 08:57:56;;;;;;;210.38;83.43;;;;;;;;;;4995538;28;20064;-81
2022/12/21 09:00:24;;;;;;;207.05;79.75;;;;;;;;;;4988357;28;20030;-82
2022/12/21 09:02:50;;;;;;;195.27;80.53;;;;;;;;;;4990413;28;20415;-81
2022/12/21 09:05:16;;;;;;;197.63;79.03;;;;;;;;;;5001298;28;20030;-82
2022/12/21 09:07:42;;;;;;;193.20;79.95;;;;;;;;;;4972608;28;20400;-83
2022/12/21 09:10:08;;;;;;;185.27;75.82;;;;;;;;;;4990246;28;20121;-82
2022/12/21 09:12:34;;;;;;;181.65;78.55;;;;;;;;;;4988973;28;20488;-82
2022/12/21 09:15:00;;;;;;;191.07;77.05;;;;;;;;;;4986771;28;20121;-82
2022/12/21 09:17:26;;;;;;;190.02;74.63;;;;;;;;;;4972971;28;20380;-83
2022/12/21 09:19:53;;;;;;;187.77;76.65;;;;;;;;;;4990229;28;20096;-82
2022/12/21 09:22:20;;;;;;;190.02;77.10;;;;;;;;;;4992924;28;20460;-82
2022/12/21 09:24:46;;;;;;;201.13;80.00;;;;;;;;;;5008546;28;20041;-81
2022/12/21 09:27:12;;;;;;;180.05;79.40;;;;;;;;;;4992442;28;20053;-82
2022/12/21 09:29:38;;;;;;;183.60;78.50;;;;;;;;;;4993523;28;20404;-82
2022/12/21 09:32:04;;;;;;;186.30;78.97;;;;;;;;;;4992030;28;20125;-81
2022/12/21 09:34:30;;;;;;;185.45;77.00;;;;;;;;;;4981416;28;20039;-82
2022/12/21 09:36:56;;;;;;;171.95;71.90;;;;;;;;;;4991555;28;20423;-82
2022/12/21 09:39:22;;;;;;;162.98;69.43;;;;;;;;;;4996234;28;20042;-82
2022/12/21 09:41:56;;;;;;;154.75;69.43;;;;;;;;;;4993038;28;20041;-81
2022/12/21 09:44:29;;;;;;;158.02;68.93;;;;;;;;;;4972344;28;20067;-81
2022/12/21 09:46:57;;;;;;;150.20;70.55;;;;;;;;;;4980678;28;20027;-82
2022/12/21 09:49:29;;;;;;;152.07;71.93;;;;;;;;;;4979896;28;20026;-82
2022/12/21 09:51:59;;;;;;;156.50;71.60;;;;;;;;;;4987204;28;20031;-82
2022/12/21 09:54:40;;;;;;;167.32;70.68;;;;;;;;;;4992586;28;20046;-82
2022/12/21 09:57:09;;;;;;;144.10;64.85;;;;;;;;;;4992139;28;20196;-82
2022/12/21 09:59:35;;;;;;;126.15;61.47;;;;;;;;;;4998898;28;20034;-81
2022/12/21 10:02:26;;;;;;;114.82;55.92;;;;;;;;;;4974907;28;20487;-82
2022/12/21 10:05:07;;;;;;;112.65;53.10;;;;;;;;;;4991103;28;20056;-82
2022/12/21 10:07:33;;;;;;;107.97;50.75;;;;;;;;;;4991018;28;20046;-83
2022/12/21 10:10:07;;;;;;;100.38;48.17;;;;;;;;;;5006555;28;20026;-82
2022/12/21 10:12:57;;;;;;;108.43;49.42;;;;;;;;;;4989406;28;20033;-81
2022/12/21 10:15:29;;;;;;;105.00;49.75;;;;;;;;;;4981363;28;20034;-82
2022/12/21 10:18:13;;;;;;;103.55;50.45;;;;;;;;;;4972081;28;20066;-82
2022/12/21 10:20:58;;;;;;;91.85;46.95;;;;;;;;;;4975623;28;20122;-82
2022/12/21 10:23:26;;;;;;;88.00;44.72;;;;;;;;;;4988257;28;20035;-83
2022/12/21 10:25:57;;;;;;;83.25;43.60;;;;;;;;;;4979165;28;20030;-81
2022/12/21 10:28:26;;;;;;;91.57;41.92;;;;;;;;;;4992178;28;20018;-85
2022/12/21 10:30:58;;;;;;;82.63;40.03;;;;;;;;;;4989519;28;20042;-83
2022/12/21 10:33:24;;;;;;;84.05;39.13;;;;;;;;;;4989938;28;20551;-82
2022/12/21 10:35:53;;;;;;;81.50;40.08;;;;;;;;;;4991109;28;20039;-81
2022/12/21 10:38:20;;;;;;;78.45;39.65;;;;;;;;;;4992453;28;20491;-81
2022/12/21 10:40:51;;;;;;;73.55;36.45;;;;;;;;;;4982351;28;20038;-82
2022/12/21 10:43:17;;;;;;;68.43;36.38;;;;;;;;;;4990055;28;20436;-81
2022/12/21 10:45:44;;;;;;;77.28;35.95;;;;;;;;;;4989736;28;20030;-81
2022/12/21 10:48:11;;;;;;;75.45;37.70;;;;;;;;;;4990573;28;20030;-81
2022/12/21 10:50:48;;;;;;;76.07;36.47;;;;;;;;;;4990128;28;20129;-81
2022/12/21 10:53:33;;;;;;;78.65;37.55;;;;;;;;;;4971802;28;20428;-82
2022/12/21 10:56:00;;;;;;;82.35;37.03;;;;;;;;;;4980061;28;20039;-81
2022/12/21 10:58:28;;;;;;;75.70;39.30;;;;;;;;;;4987236;28;20118;-82
2022/12/21 11:01:04;;;;;;;80.65;39.78;;;;;;;;;;4980319;28;20034;-81
2022/12/21 11:03:34;;;;;;;77.75;40.05;;;;;;;;;;5001039;28;20424;-82
2022/12/21 11:06:10;;;;;;;78.57;40.13;;;;;;;;;;4991989;28;20042;-81
2022/12/21 11:08:42;;;;;;;87.57;41.67;;;;;;;;;;4987290;28;20451;-81
2022/12/21 11:11:25;;;;;;;78.43;41.92;;;;;;;;;;4992902;28;20443;-81
2022/12/21 11:13:59;;;;;;;81.32;41.40;;;;;;;;;;4991597;28;20032;-81
2022/12/21 11:16:28;;;;;;;84.78;38.17;;;;;;;;;;5002496;28;20070;-81
2022/12/21 11:18:57;;;;;;;72.63;39.53;;;;;;;;;;5005927;28;20527;-80
2022/12/21 11:21:23;;;;;;;100.32;44.13;;;;;;;;;;4991080;28;20050;-81
2022/12/21 11:23:56;;;;;;;84.00;42.03;;;;;;;;;;4989398;28;20034;-80
2022/12/21 11:26:25;;;;;;;87.65;42.28;;;;;;;;;;4976372;28;20074;-82
2022/12/21 11:28:58;;;;;;;87.78;41.85;;;;;;;;;;4986699;28;20087;-82
2022/12/21 11:31:26;;;;;;;97.13;42.78;;;;;;;;;;5002037;28;20026;-81
2022/12/21 11:33:52;;;;;;;80.13;41.65;;;;;;;;;;4988958;28;20041;-81
2022/12/21 11:36:19;;;;;;;81.40;41.05;;;;;;;;;;4983316;28;20034;-81
2022/12/21 11:38:45;;;;;;;87.07;40.33;;;;;;;;;;4990707;28;20034;-81
2022/12/21 11:41:18;;;;;;;72.97;39.70;;;;;;;;;;4988986;28;20089;-81
2022/12/21 11:43:45;;;;;;;75.97;33.95;;;;;;;;;;4992665;28;20031;-81
2022/12/21 11:46:17;;;;;;;71.47;33.15;;;;;;;;;;4990267;28;20046;-80
2022/12/21 11:48:47;;;;;;;78.05;33.30;;;;;;;;;;4991060;28;20038;-81
2022/12/21 11:51:29;;;;;;;67.68;31.17;;;;;;;;;;4983919;28;20110;-82
2022/12/21 11:53:55;;;;;;;65.75;30.90;;;;;;;;;;5000813;28;20499;-81
2022/12/21 11:56:37;;;;;;;71.20;31.52;;;;;;;;;;4986626;28;20082;-84
2022/12/21 11:59:06;;;;;;;67.18;30.52;;;;;;;;;;4970588;28;20117;-81
2022/12/21 12:01:41;;;;;;;67.85;30.10;;;;;;;;;;4983665;28;20041;-81
2022/12/21 12:04:31;;;;;;;76.38;31.45;;;;;;;;;;4974087;28;20065;-80
2022/12/21 12:07:10;;;;;;;67.72;29.08;;;;;;;;;;4986371;28;20096;-80
2022/12/21 12:09:43;;;;;;;70.38;30.02;;;;;;;;;;4986320;28;20068;-80
2022/12/21 12:12:17;;;;;;;64.93;30.90;;;;;;;;;;4989954;28;20069;-80
2022/12/21 12:14:49;;;;;;;82.00;32.20;;;;;;;;;;4988848;28;20069;-80
2022/12/21 12:17:33;;;;;;;62.13;28.83;;;;;;;;;;4969790;28;20041;-80
2022/12/21 12:20:09;;;;;;;61.42;29.77;;;;;;;;;;4987376;28;20483;-82
2022/12/21 12:23:04;;;;;;;60.72;27.70;;;;;;;;;;4975757;28;20084;-81
2022/12/21 12:25:39;;;;;;;65.20;30.30;;;;;;;;;;4980672;28;20376;-82
2022/12/21 12:28:14;;;;;;;74.30;31.52;;;;;;;;;;4974138;28;20039;-81
2022/12/21 12:30:46;;;;;;;62.75;30.25;;;;;;;;;;4988632;28;20030;-81
2022/12/21 12:33:13;;;;;;;70.45;30.55;;;;;;;;;;4988422;28;20484;-80
2022/12/21 12:35:39;;;;;;;62.00;29.90;;;;;;;;;;5001434;28;20035;-80
2022/12/21 12:38:20;;;;;;;63.83;29.67;;;;;;;;;;4986623;28;20487;-81
2022/12/21 12:41:06;;;;;;;63.53;28.63;;;;;;;;;;4988482;28;20030;-82
2022/12/21 12:43:59;;;;;;;58.65;28.88;;;;;;;;;;4992798;28;20034;-82
2022/12/21 12:46:37;;;;;;;53.00;27.73;;;;;;;;;;4975281;28;20069;-81
2022/12/21 12:49:03;;;;;;;59.42;29.02;;;;;;;;;;5001113;28;20027;-81
2022/12/21 12:51:29;;;;;;;62.35;28.48;;;;;;;;;;4981101;28;20026;-81
2022/12/21 12:53:59;;;;;;;64.50;28.70;;;;;;;;;;4990939;28;20030;-81
2022/12/21 12:56:44;;;;;;;58.80;28.23;;;;;;;;;;4993626;28;20057;-81
2022/12/21 12:59:16;;;;;;;54.28;27.95;;;;;;;;;;4993285;28;20035;-81
2022/12/21 13:02:06;;;;;;;54.88;28.70;;;;;;;;;;5007303;28;20463;-80
2022/12/21 13:04:38;;;;;;;58.17;27.77;;;;;;;;;;4971044;28;20089;-80
2022/12/21 13:07:14;;;;;;;54.40;27.98;;;;;;;;;;4991495;28;20041;-80
2022/12/21 13:09:46;;;;;;;57.08;28.00;;;;;;;;;;4990529;28;20049;-80
2022/12/21 13:12:13;;;;;;;57.83;29.90;;;;;;;;;;4992308;28;20403;-80
2022/12/21 13:14:59;;;;;;;51.03;27.95;;;;;;;;;;4994029;28;20096;-80
2022/12/21 13:17:33;;;;;;;49.88;26.40;;;;;;;;;;4992083;28;20085;-80
2022/12/21 13:20:00;;;;;;;48.90;26.55;;;;;;;;;;4991614;28;20089;-80
2022/12/21 13:22:30;;;;;;;47.40;25.92;;;;;;;;;;4989844;28;20018;-80
2022/12/21 13:25:01;;;;;;;42.53;26.35;;;;;;;;;;4992666;28;20097;-80
2022/12/21 13:27:35;;;;;;;50.17;26.83;;;;;;;;;;4993819;28;20058;-80
2022/12/21 13:30:01;;;;;;;49.13;28.45;;;;;;;;;;5000550;28;20034;-81
2022/12/21 13:32:29;;;;;;;51.28;28.05;;;;;;;;;;5008125;28;20353;-81
2022/12/21 13:35:05;;;;;;;56.75;28.48;;;;;;;;;;4992709;28;20030;-82
2022/12/21 13:37:31;;;;;;;54.95;30.80;;;;;;;;;;4991893;28;20033;-83
2022/12/21 13:40:00;;;;;;;51.75;30.92;;;;;;;;;;4975999;28;20038;-81
2022/12/21 13:42:36;;;;;;;53.63;31.95;;;;;;;;;;4985308;28;20037;-85
2022/12/21 13:45:11;;;;;;;61.70;33.75;;;;;;;;;;4991867;28;20415;-81
2022/12/21 13:47:37;;;;;;;60.13;33.63;;;;;;;;;;4983466;28;20173;-81
2022/12/21 13:50:22;;;;;;;55.58;31.85;;;;;;;;;;4998648;28;20158;-81
2022/12/21 13:52:52;;;;;;;52.35;29.25;;;;;;;;;;4986533;28;20030;-82
2022/12/21 13:55:18;;;;;;;51.60;30.60;;;;;;;;;;4971972;28;20038;-81
2022/12/21 13:58:03;;;;;;;53.03;30.27;;;;;;;;;;5001897;28;20480;-81
2022/12/21 14:00:34;;;;;;;52.67;28.02;;;;;;;;;;4988984;28;20032;-83
2022/12/21 14:03:12;;;;;;;43.65;25.40;;;;;;;;;;5008176;28;20081;-81
2022/12/21 14:05:45;;;;;;;43.80;23.25;;;;;;;;;;4992200;28;20034;-82
2022/12/21 14:08:22;;;;;;;41.33;24.63;;;;;;;;;;4992086;28;20462;-81
2022/12/21 14:11:07;;;;;;;45.22;24.75;;;;;;;;;;4990897;28;20056;-81
2022/12/21 14:13:36;;;;;;;43.47;23.83;;;;;;;;;;4992943;28;20023;-81
2022/12/21 14:16:03;;;;;;;48.13;25.35;;;;;;;;;;4991758;28;20034;-80
2022/12/21 14:18:31;;;;;;;47.65;24.23;;;;;;;;;;4988863;28;20054;-81
2022/12/21 14:21:02;;;;;;;45.45;22.33;;;;;;;;;;4985819;28;20419;-81
2022/12/21 14:23:29;;;;;;;40.83;23.75;;;;;;;;;;4988904;28;20076;-81
2022/12/21 14:25:56;;;;;;;42.42;25.23;;;;;;;;;;4991891;28;20045;-80
2022/12/21 14:28:29;;;;;;;42.25;24.02;;;;;;;;;;4992797;28;20042;-80
2022/12/21 14:31:11;;;;;;;49.13;26.25;;;;;;;;;;4990931;28;20081;-80
2022/12/21 14:33:45;;;;;;;41.65;23.83;;;;;;;;;;5002445;28;20023;-80
2022/12/21 14:36:18;;;;;;;48.28;25.88;;;;;;;;;;4993638;28;20023;-82